KSFF/SFF METAR and TAF weather

Enter ICAO airport designator
Station Type Date Time Source
KSFF METAR 2019/12/06 23:53 UTC NOAA

KSFF 062353Z 00000KT 10SM BKN060 05/03 A3000 RMK AO2 SLP170 T00500028 10061 20033 56011


Station Type Date Time Source
KSFF Decoded METAR 2019/12/06 23:53 UTC NOAA

FELTS FIELD, WA, United States (KSFF) 47-41N 117-19W 609M
Dec 06, 2019 - 06:53 PM EST / 2019.12.06 2353 UTC
Wind: Calm:0
Visibility: 10 mile(s):0
Sky conditions: mostly cloudy
Temperature: 41.0 F (5.0 C)
Dew Point: 37.0 F (2.8 C)
Relative Humidity: 85%
Pressure (altimeter): 30 in. Hg (1015 hPa)
Pressure tendency: 0.03 inches (1.1 hPa) lower than three hours ago
ob: KSFF 062353Z 00000KT 10SM BKN060 05/03 A3000 RMK AO2 SLP170 T00500028 10061 20033 56011
cycle: 0

Station Type Date Time Source
KSFF TAF 2019/12/06 20:12 UTC NOAA

TAF
AMD KSFF 062011Z 0620/0718 VRB02KT 6SM BR OVC060
FM062100 VRB04KT P6SM OVC060
FM070600 23004KT P6SM OVC050
FM071000 VRB03KT 2SM -RA BR OVC007

Example: see airport list